EPZG

Zielona Góra-Babimost Airport

Babimost, Poland
METAR EPZG 232200Z 23001KT 6000 NSC M10/M11 Q1027
Observed Flight Rules
Feb-23 @ 22:00 UTC (31 minutes ago) Marginal Visual Flight Rules
Wind Visibility Clouds
230° at 1 knots 6,003 meters
  • Clear skies
Temperatures Readings
Current -10°C / 14°F
Dewpoint -11°C / 12°F
Humidity 92%
Altimeter 30.32" Hg
Pressure 1027 hPa
Elevation 59
METAR EPZG 232200Z 23001KT 6000 NSC M10/M11 Q1027
Observed Flight Rules
Feb-23 @ 22:00 UTC
(31 minutes ago)
MVFR
Wind Visibility
230° at 1 knots 6,003 meters
Clouds
  • Clear skies
Temperature Dewpoint
-10°C / 14°F -11°C / 12°F
Humidity Altimeter Pressure
92% 30.32" Hg 1027 hPa